Time;durP1;ratioP1;P1;durP2;ratioP2;P2;SDS_P1;SDS_P2;PMS_P1;PMS_P2;Temp;Humidity;BMP_temperature;BMP_pressure;BME280_temperature;BME280_humidity;BME280_pressure;Samples;Min_cycle;Max_cycle;Signal;HPM_P1;HPM_P2
2023/09/28 00:01:18;;;;;;;0.40;0.40;;;;;;;;;;4906474;29;20043;-62
2023/09/28 00:03:44;;;;;;;0.50;0.50;;;;;;;;;;4904163;29;20036;-63
2023/09/28 00:06:10;;;;;;;0.50;0.50;;;;;;;;;;4900566;29;20076;-63
2023/09/28 00:08:35;;;;;;;0.50;0.50;;;;;;;;;;4906128;29;20040;-62
2023/09/28 00:11:01;;;;;;;0.50;0.50;;;;;;;;;;4906301;29;20043;-63
2023/09/28 00:13:26;;;;;;;0.50;0.50;;;;;;;;;;4907716;29;20047;-62
2023/09/28 00:15:51;;;;;;;0.50;0.50;;;;;;;;;;4904057;29;20187;-65
2023/09/28 00:18:17;;;;;;;0.50;0.50;;;;;;;;;;4903645;29;20111;-63
2023/09/28 00:20:42;;;;;;;0.50;0.50;;;;;;;;;;4905500;29;20123;-61
2023/09/28 00:23:08;;;;;;;0.50;0.50;;;;;;;;;;4906838;29;20387;-63
2023/09/28 00:25:33;;;;;;;0.55;0.55;;;;;;;;;;4903979;29;20033;-61
2023/09/28 00:27:58;;;;;;;0.50;0.50;;;;;;;;;;4906387;29;20112;-61
2023/09/28 00:30:26;;;;;;;0.50;0.50;;;;;;;;;;4918700;29;20044;-62
2023/09/28 00:32:52;;;;;;;0.50;0.50;;;;;;;;;;4902541;29;20045;-62
2023/09/28 00:35:18;;;;;;;0.50;0.50;;;;;;;;;;4917483;29;20143;-63
2023/09/28 00:37:43;;;;;;;0.50;0.50;;;;;;;;;;4898300;29;20027;-62
2023/09/28 00:40:28;;;;;;;0.50;0.50;;;;;;;;;;4898472;29;20067;-62
2023/09/28 00:42:53;;;;;;;0.57;0.57;;;;;;;;;;4899971;29;20030;-62
2023/09/28 00:45:20;;;;;;;0.40;0.40;;;;;;;;;;4899962;29;20028;-61
2023/09/28 00:47:45;;;;;;;0.50;0.50;;;;;;;;;;4913288;29;20048;-62
2023/09/28 00:50:14;;;;;;;0.50;0.50;;;;;;;;;;4901731;29;20042;-61
2023/09/28 00:52:41;;;;;;;0.60;0.60;;;;;;;;;;4904409;29;20044;-61
2023/09/28 00:55:08;;;;;;;0.50;0.50;;;;;;;;;;4908303;29;20040;-63
2023/09/28 00:57:33;;;;;;;;;;;;;;;;;;4904376;29;20032;-62
2023/09/28 01:00:08;;;;;;;0.60;0.60;;;;;;;;;;4903632;29;21829;-62
2023/09/28 01:02:33;;;;;;;0.50;0.50;;;;;;;;;;4899269;29;20600;-61
2023/09/28 01:04:58;;;;;;;0.50;0.50;;;;;;;;;;4902088;29;20064;-62
2023/09/28 01:07:25;;;;;;;0.60;0.60;;;;;;;;;;4904435;29;20039;-62
2023/09/28 01:09:50;;;;;;;0.57;0.57;;;;;;;;;;4903639;29;20051;-62
2023/09/28 01:12:16;;;;;;;0.60;0.60;;;;;;;;;;4920575;29;20456;-63
2023/09/28 01:14:42;;;;;;;0.60;0.60;;;;;;;;;;4901397;29;20040;-62
2023/09/28 01:17:09;;;;;;;0.50;0.50;;;;;;;;;;4917667;29;20063;-62
2023/09/28 01:19:34;;;;;;;0.60;0.60;;;;;;;;;;4908057;29;20028;-62
2023/09/28 01:21:59;;;;;;;0.50;0.50;;;;;;;;;;4902322;29;20037;-62
2023/09/28 01:24:27;;;;;;;0.60;0.60;;;;;;;;;;4897237;29;20047;-61
2023/09/28 01:26:52;;;;;;;0.50;0.50;;;;;;;;;;4900190;29;20361;-61
2023/09/28 01:29:17;;;;;;;0.60;0.60;;;;;;;;;;4916911;29;20028;-61
2023/09/28 01:31:42;;;;;;;0.50;0.50;;;;;;;;;;4903630;29;20111;-62
2023/09/28 01:34:08;;;;;;;0.60;0.60;;;;;;;;;;4902429;29;20035;-62
2023/09/28 01:36:33;;;;;;;0.50;0.50;;;;;;;;;;4898879;29;20111;-62
2023/09/28 01:39:02;;;;;;;0.50;0.50;;;;;;;;;;4901839;29;20040;-63
2023/09/28 01:41:28;;;;;;;0.60;0.60;;;;;;;;;;4918555;29;20071;-63
2023/09/28 01:43:53;;;;;;;0.50;0.50;;;;;;;;;;4904899;29;20115;-62
2023/09/28 01:46:18;;;;;;;0.50;0.50;;;;;;;;;;4902354;29;20029;-63
2023/09/28 01:48:43;;;;;;;0.50;0.50;;;;;;;;;;4902490;29;20036;-63
2023/09/28 01:51:09;;;;;;;0.60;0.60;;;;;;;;;;4904866;29;20116;-64
2023/09/28 01:53:34;;;;;;;0.50;0.50;;;;;;;;;;4916526;29;20024;-62
2023/09/28 01:56:01;;;;;;;0.50;0.50;;;;;;;;;;4906043;29;20032;-61
2023/09/28 01:58:26;;;;;;;0.60;0.60;;;;;;;;;;4899172;29;20040;-61
2023/09/28 02:00:51;;;;;;;0.50;0.50;;;;;;;;;;4897680;29;20097;-63
2023/09/28 02:03:17;;;;;;;0.52;0.52;;;;;;;;;;4912885;29;20045;-65
2023/09/28 02:05:42;;;;;;;0.50;0.50;;;;;;;;;;4903418;29;20111;-62
2023/09/28 02:08:07;;;;;;;0.50;0.50;;;;;;;;;;4901435;29;20036;-65
2023/09/28 02:10:33;;;;;;;0.57;0.57;;;;;;;;;;4900766;29;20406;-65
2023/09/28 02:12:59;;;;;;;0.52;0.52;;;;;;;;;;4901588;29;20463;-65
2023/09/28 02:15:24;;;;;;;0.50;0.50;;;;;;;;;;4897695;29;20410;-65
2023/09/28 02:17:50;;;;;;;0.40;0.40;;;;;;;;;;4900796;29;20055;-63
2023/09/28 02:20:16;;;;;;;0.50;0.50;;;;;;;;;;4900446;29;20064;-63
2023/09/28 02:22:43;;;;;;;0.50;0.50;;;;;;;;;;4898294;29;20074;-64
2023/09/28 02:25:10;;;;;;;0.50;0.50;;;;;;;;;;4901760;29;20452;-64
2023/09/28 02:27:36;;;;;;;0.50;0.50;;;;;;;;;;4902243;29;20032;-62
2023/09/28 02:30:04;;;;;;;0.50;0.50;;;;;;;;;;4899401;29;20062;-63
2023/09/28 02:32:29;;;;;;;0.50;0.50;;;;;;;;;;4917176;29;20028;-65
2023/09/28 02:34:54;;;;;;;0.50;0.50;;;;;;;;;;4901748;29;20043;-62
2023/09/28 02:37:20;;;;;;;0.50;0.50;;;;;;;;;;4903322;29;20027;-63
2023/09/28 02:39:46;;;;;;;0.50;0.50;;;;;;;;;;4890290;29;20040;-63
2023/09/28 02:42:11;;;;;;;0.60;0.60;;;;;;;;;;4904354;29;20596;-63
2023/09/28 02:44:36;;;;;;;0.50;0.50;;;;;;;;;;4901224;29;20119;-62
2023/09/28 02:47:05;;;;;;;0.50;0.50;;;;;;;;;;4914482;29;20029;-61
2023/09/28 02:49:34;;;;;;;0.60;0.60;;;;;;;;;;4906184;29;20032;-62
2023/09/28 02:51:59;;;;;;;0.50;0.50;;;;;;;;;;4900066;29;20047;-62
2023/09/28 02:54:25;;;;;;;0.50;0.50;;;;;;;;;;4899508;29;20032;-62
2023/09/28 02:56:51;;;;;;;0.50;0.50;;;;;;;;;;4902659;29;20041;-62
2023/09/28 02:59:17;;;;;;;0.50;0.50;;;;;;;;;;4895474;29;20476;-62
2023/09/28 03:01:42;;;;;;;0.57;0.57;;;;;;;;;;4914870;29;20041;-62
2023/09/28 03:04:08;;;;;;;0.50;0.50;;;;;;;;;;4920763;29;20048;-64
2023/09/28 03:06:40;;;;;;;0.50;0.50;;;;;;;;;;4896393;29;20410;-62
2023/09/28 03:09:07;;;;;;;0.47;0.47;;;;;;;;;;4887659;29;20088;-61
2023/09/28 03:11:33;;;;;;;;;;;;;;;;;;4902988;29;20039;-62
2023/09/28 03:13:58;;;;;;;0.50;0.50;;;;;;;;;;4908155;29;19915;-62
2023/09/28 03:16:23;;;;;;;0.60;0.60;;;;;;;;;;4905854;29;20047;-63
2023/09/28 03:18:49;;;;;;;0.50;0.50;;;;;;;;;;4905305;29;20164;-62
2023/09/28 03:21:14;;;;;;;0.50;0.50;;;;;;;;;;4906223;29;20070;-63
2023/09/28 03:23:39;;;;;;;0.50;0.50;;;;;;;;;;4905759;29;20399;-62
2023/09/28 03:26:06;;;;;;;0.50;0.50;;;;;;;;;;4922388;29;20032;-61
2023/09/28 03:28:31;;;;;;;0.50;0.50;;;;;;;;;;4901525;29;20486;-62
2023/09/28 03:30:56;;;;;;;0.50;0.50;;;;;;;;;;4906386;29;20044;-63
2023/09/28 03:33:22;;;;;;;0.50;0.50;;;;;;;;;;4906534;29;20439;-65
2023/09/28 03:35:47;;;;;;;0.50;0.50;;;;;;;;;;4901166;29;20024;-62
2023/09/28 03:38:12;;;;;;;0.50;0.50;;;;;;;;;;4903350;29;20024;-62
2023/09/28 03:40:38;;;;;;;0.50;0.50;;;;;;;;;;4902586;29;20035;-65
2023/09/28 03:43:04;;;;;;;0.50;0.50;;;;;;;;;;4898262;29;20040;-63
2023/09/28 03:45:29;;;;;;;0.50;0.50;;;;;;;;;;4902154;29;20403;-64
2023/09/28 03:47:54;;;;;;;0.60;0.60;;;;;;;;;;4917484;29;20031;-63
2023/09/28 03:50:21;;;;;;;0.50;0.50;;;;;;;;;;4901982;29;20048;-62
2023/09/28 03:52:46;;;;;;;0.50;0.50;;;;;;;;;;4904129;29;20131;-62
2023/09/28 03:55:12;;;;;;;0.52;0.52;;;;;;;;;;4904739;29;20107;-61
2023/09/28 03:57:38;;;;;;;0.43;0.43;;;;;;;;;;4906857;29;20038;-61
2023/09/28 04:00:04;;;;;;;0.50;0.50;;;;;;;;;;4906071;29;20028;-61
2023/09/28 04:02:36;;;;;;;0.50;0.50;;;;;;;;;;4904560;29;20135;-62
2023/09/28 04:05:02;;;;;;;0.50;0.50;;;;;;;;;;4909365;29;20142;-61
2023/09/28 04:07:29;;;;;;;0.50;0.50;;;;;;;;;;4904758;29;20028;-61
2023/09/28 04:09:54;;;;;;;0.50;0.50;;;;;;;;;;4905199;29;20032;-63
2023/09/28 04:12:19;;;;;;;0.50;0.50;;;;;;;;;;4907371;29;20036;-62
2023/09/28 04:14:44;;;;;;;0.40;0.40;;;;;;;;;;4904588;29;20043;-61
2023/09/28 04:17:10;;;;;;;0.50;0.50;;;;;;;;;;4906471;29;20036;-61
2023/09/28 04:19:35;;;;;;;0.50;0.50;;;;;;;;;;4900764;29;20043;-61
2023/09/28 04:22:00;;;;;;;0.50;0.50;;;;;;;;;;4901542;29;20044;-61
2023/09/28 04:24:26;;;;;;;0.50;0.50;;;;;;;;;;4902818;29;20040;-61
2023/09/28 04:26:51;;;;;;;0.50;0.50;;;;;;;;;;4898588;29;20083;-62
2023/09/28 04:29:17;;;;;;;0.50;0.50;;;;;;;;;;4903436;29;20037;-62
2023/09/28 04:31:42;;;;;;;0.50;0.50;;;;;;;;;;4902010;29;20087;-62
2023/09/28 04:34:07;;;;;;;0.50;0.50;;;;;;;;;;4901589;29;20636;-63
2023/09/28 04:36:38;;;;;;;0.40;0.40;;;;;;;;;;4904196;29;20043;-62
2023/09/28 04:39:04;;;;;;;0.50;0.50;;;;;;;;;;4902578;29;20033;-65
2023/09/28 04:41:29;;;;;;;0.47;0.47;;;;;;;;;;4907117;29;20376;-63
2023/09/28 04:43:54;;;;;;;0.40;0.40;;;;;;;;;;4904824;29;20074;-63
2023/09/28 04:46:20;;;;;;;0.50;0.50;;;;;;;;;;4904429;29;20055;-62
2023/09/28 04:48:45;;;;;;;0.47;0.47;;;;;;;;;;4904672;29;20032;-62
2023/09/28 04:51:10;;;;;;;0.47;0.47;;;;;;;;;;4905146;29;20060;-62
2023/09/28 04:53:36;;;;;;;0.40;0.40;;;;;;;;;;4907019;29;20040;-63
2023/09/28 04:56:13;;;;;;;0.40;0.40;;;;;;;;;;4904012;29;20063;-62
2023/09/28 04:58:38;;;;;;;;;;;;;;;;;;4905140;29;20032;-61
2023/09/28 05:01:04;;;;;;;0.50;0.50;;;;;;;;;;4905404;29;19919;-62
2023/09/28 05:03:30;;;;;;;0.50;0.50;;;;;;;;;;4904231;29;20143;-64
2023/09/28 05:05:55;;;;;;;0.40;0.40;;;;;;;;;;4901263;29;20036;-61
2023/09/28 05:08:21;;;;;;;0.40;0.40;;;;;;;;;;4901712;29;20040;-63
2023/09/28 05:10:46;;;;;;;0.50;0.50;;;;;;;;;;4905678;29;20492;-62
2023/09/28 05:13:12;;;;;;;0.50;0.50;;;;;;;;;;4902625;29;20036;-62
2023/09/28 05:15:37;;;;;;;0.40;0.40;;;;;;;;;;4900276;29;20483;-62
2023/09/28 05:18:03;;;;;;;0.50;0.50;;;;;;;;;;4903000;29;20032;-64
2023/09/28 05:20:28;;;;;;;0.50;0.50;;;;;;;;;;4903943;29;20039;-63
2023/09/28 05:22:54;;;;;;;0.50;0.50;;;;;;;;;;4898326;29;20112;-63
2023/09/28 05:25:20;;;;;;;0.50;0.50;;;;;;;;;;4897949;29;20439;-62
2023/09/28 05:27:45;;;;;;;0.45;0.45;;;;;;;;;;4899649;29;20092;-64
2023/09/28 05:30:10;;;;;;;0.40;0.40;;;;;;;;;;4903555;29;20119;-62
2023/09/28 05:32:36;;;;;;;0.50;0.50;;;;;;;;;;4906254;29;20028;-62
2023/09/28 05:35:01;;;;;;;0.50;0.50;;;;;;;;;;4902183;29;20063;-63
2023/09/28 05:37:27;;;;;;;0.40;0.40;;;;;;;;;;4915064;29;20033;-62
2023/09/28 05:39:52;;;;;;;0.47;0.47;;;;;;;;;;4902221;29;20032;-62
2023/09/28 05:42:17;;;;;;;0.40;0.40;;;;;;;;;;4900139;29;20040;-63
2023/09/28 05:44:42;;;;;;;0.50;0.50;;;;;;;;;;4904415;29;21773;-63
2023/09/28 05:47:08;;;;;;;0.50;0.50;;;;;;;;;;4903698;29;20024;-61
2023/09/28 05:49:33;;;;;;;0.50;0.50;;;;;;;;;;4903251;29;20153;-63
2023/09/28 05:51:58;;;;;;;0.50;0.50;;;;;;;;;;4900648;29;20792;-61
2023/09/28 05:54:26;;;;;;;0.40;0.40;;;;;;;;;;4903638;29;20032;-63
2023/09/28 05:56:51;;;;;;;;;;;;;;;;;;4904594;29;20498;-64
2023/09/28 05:59:16;;;;;;;0.50;0.50;;;;;;;;;;4896912;29;19911;-61
2023/09/28 06:01:42;;;;;;;0.50;0.50;;;;;;;;;;4894211;29;20044;-62
2023/09/28 06:04:08;;;;;;;0.50;0.50;;;;;;;;;;4894971;29;20410;-63
2023/09/28 06:06:33;;;;;;;0.50;0.50;;;;;;;;;;4906975;29;20028;-61
2023/09/28 06:08:58;;;;;;;0.40;0.40;;;;;;;;;;4910534;29;20712;-63
2023/09/28 06:11:24;;;;;;;0.40;0.40;;;;;;;;;;4902509;29;20043;-61
2023/09/28 06:13:49;;;;;;;0.40;0.40;;;;;;;;;;4901487;29;20099;-61
2023/09/28 06:16:15;;;;;;;0.50;0.50;;;;;;;;;;4901494;29;20167;-61
2023/09/28 06:18:41;;;;;;;0.40;0.40;;;;;;;;;;4900446;29;20032;-61
2023/09/28 06:21:07;;;;;;;0.40;0.40;;;;;;;;;;4904026;29;20072;-62
2023/09/28 06:23:33;;;;;;;0.40;0.40;;;;;;;;;;4914640;29;20125;-62
2023/09/28 06:25:58;;;;;;;0.40;0.40;;;;;;;;;;4907415;29;20064;-62
2023/09/28 06:28:24;;;;;;;0.40;0.40;;;;;;;;;;4902128;29;20566;-63
2023/09/28 06:30:53;;;;;;;0.45;0.45;;;;;;;;;;4900374;29;20128;-61
2023/09/28 06:33:20;;;;;;;0.45;0.45;;;;;;;;;;4899434;29;20032;-61
2023/09/28 06:35:45;;;;;;;0.50;0.50;;;;;;;;;;4902092;29;20043;-61
2023/09/28 06:38:11;;;;;;;0.40;0.40;;;;;;;;;;4898262;29;20032;-63
2023/09/28 06:40:38;;;;;;;0.40;0.40;;;;;;;;;;4896885;29;20419;-61
2023/09/28 06:43:03;;;;;;;0.40;0.40;;;;;;;;;;4897773;29;20032;-62
2023/09/28 06:45:28;;;;;;;0.40;0.40;;;;;;;;;;4909246;29;20036;-63
2023/09/28 06:47:54;;;;;;;0.30;0.30;;;;;;;;;;4893044;29;20037;-63
2023/09/28 06:50:20;;;;;;;0.40;0.40;;;;;;;;;;4894876;29;20994;-63
2023/09/28 06:52:45;;;;;;;0.40;0.40;;;;;;;;;;4892766;29;20032;-63
2023/09/28 06:55:11;;;;;;;0.30;0.30;;;;;;;;;;4894265;29;20032;-62
2023/09/28 06:57:36;;;;;;;0.30;0.30;;;;;;;;;;4897376;29;20677;-64
2023/09/28 07:00:06;;;;;;;0.30;0.30;;;;;;;;;;4896723;29;20044;-64
2023/09/28 07:02:31;;;;;;;0.30;0.30;;;;;;;;;;4898414;29;20056;-62
2023/09/28 07:04:57;;;;;;;0.30;0.30;;;;;;;;;;4904489;29;20035;-62
2023/09/28 07:07:22;;;;;;;0.30;0.30;;;;;;;;;;4900615;29;20048;-63
2023/09/28 07:09:47;;;;;;;0.30;0.30;;;;;;;;;;4900051;29;20418;-62
2023/09/28 07:12:13;;;;;;;0.30;0.30;;;;;;;;;;4901811;29;20040;-64
2023/09/28 07:14:38;;;;;;;0.30;0.30;;;;;;;;;;4901283;29;20134;-62
2023/09/28 07:17:03;;;;;;;0.30;0.30;;;;;;;;;;4900699;29;20395;-61
2023/09/28 07:19:29;;;;;;;0.30;0.30;;;;;;;;;;4900268;29;20043;-63
2023/09/28 07:21:54;;;;;;;0.30;0.30;;;;;;;;;;4898239;29;20367;-63
2023/09/28 07:24:19;;;;;;;0.30;0.30;;;;;;;;;;4900034;29;20063;-62
2023/09/28 07:26:46;;;;;;;0.20;0.20;;;;;;;;;;4895287;29;20471;-61
2023/09/28 07:29:11;;;;;;;0.30;0.30;;;;;;;;;;4894532;29;20071;-62
2023/09/28 07:31:37;;;;;;;0.30;0.30;;;;;;;;;;4906235;29;20080;-63
2023/09/28 07:34:02;;;;;;;0.20;0.20;;;;;;;;;;4897350;29;20040;-62
2023/09/28 07:36:28;;;;;;;0.30;0.30;;;;;;;;;;4891750;29;20044;-61
2023/09/28 07:38:53;;;;;;;0.20;0.20;;;;;;;;;;4895801;29;20033;-63
2023/09/28 07:41:18;;;;;;;0.30;0.30;;;;;;;;;;4894812;29;20088;-63
2023/09/28 07:43:43;;;;;;;0.20;0.20;;;;;;;;;;4894201;29;20048;-61
2023/09/28 07:46:09;;;;;;;0.20;0.20;;;;;;;;;;4895182;29;20085;-62
2023/09/28 07:48:34;;;;;;;0.30;0.30;;;;;;;;;;4898642;29;20032;-65
2023/09/28 07:51:00;;;;;;;0.30;0.30;;;;;;;;;;4897835;29;20956;-62
2023/09/28 07:53:25;;;;;;;0.20;0.20;;;;;;;;;;4899903;29;20558;-62
2023/09/28 07:55:51;;;;;;;0.20;0.20;;;;;;;;;;4901349;29;20044;-64
2023/09/28 07:58:16;;;;;;;0.20;0.20;;;;;;;;;;4904407;29;20079;-63
2023/09/28 08:00:42;;;;;;;0.20;0.20;;;;;;;;;;4905064;29;20583;-62
2023/09/28 08:03:07;;;;;;;0.20;0.20;;;;;;;;;;4903749;29;20040;-63
2023/09/28 08:05:33;;;;;;;0.20;0.20;;;;;;;;;;4903450;29;20031;-64
2023/09/28 08:07:58;;;;;;;0.20;0.20;;;;;;;;;;4908018;29;20036;-62
2023/09/28 08:10:23;;;;;;;0.20;0.20;;;;;;;;;;4901165;29;20475;-62
2023/09/28 08:12:48;;;;;;;0.20;0.20;;;;;;;;;;4918643;29;20482;-63
2023/09/28 08:15:15;;;;;;;0.20;0.20;;;;;;;;;;4905281;29;20104;-62
2023/09/28 08:17:44;;;;;;;0.20;0.20;;;;;;;;;;4897921;29;20036;-62
2023/09/28 08:20:10;;;;;;;0.20;0.20;;;;;;;;;;4897524;29;20033;-62
2023/09/28 08:22:35;;;;;;;0.20;0.20;;;;;;;;;;4898309;29;20139;-63
2023/09/28 08:25:01;;;;;;;0.10;0.10;;;;;;;;;;4902484;29;20036;-64
2023/09/28 08:27:26;;;;;;;0.20;0.20;;;;;;;;;;4901940;29;20032;-62
2023/09/28 08:29:51;;;;;;;0.20;0.20;;;;;;;;;;4902483;29;20632;-62
2023/09/28 08:32:17;;;;;;;0.20;0.20;;;;;;;;;;4900533;29;20031;-62
2023/09/28 08:34:43;;;;;;;0.20;0.20;;;;;;;;;;4902569;29;20035;-61
2023/09/28 08:37:09;;;;;;;0.10;0.10;;;;;;;;;;4900495;29;20033;-63
2023/09/28 08:39:35;;;;;;;0.20;0.20;;;;;;;;;;4901138;29;20035;-64
2023/09/28 08:42:01;;;;;;;0.20;0.20;;;;;;;;;;4902284;29;20696;-62
2023/09/28 08:44:29;;;;;;;0.20;0.20;;;;;;;;;;4902083;29;20028;-65
2023/09/28 08:46:56;;;;;;;0.20;0.20;;;;;;;;;;4903274;29;20117;-62
2023/09/28 08:49:22;;;;;;;0.10;0.10;;;;;;;;;;4901105;29;20040;-64
2023/09/28 08:51:50;;;;;;;0.20;0.20;;;;;;;;;;4897789;29;20128;-63
2023/09/28 08:54:16;;;;;;;0.10;0.10;;;;;;;;;;4898541;29;20115;-62
2023/09/28 08:56:42;;;;;;;0.20;0.20;;;;;;;;;;4900942;29;20229;-63
2023/09/28 08:59:09;;;;;;;0.10;0.10;;;;;;;;;;4900597;29;20555;-66
2023/09/28 09:01:34;;;;;;;0.17;0.17;;;;;;;;;;4901671;29;20824;-63
2023/09/28 09:04:00;;;;;;;0.17;0.17;;;;;;;;;;4903037;29;20036;-63
2023/09/28 09:06:28;;;;;;;0.10;0.10;;;;;;;;;;4899745;29;20047;-63
2023/09/28 09:08:54;;;;;;;0.20;0.20;;;;;;;;;;4898084;29;20467;-64
2023/09/28 09:11:20;;;;;;;0.10;0.10;;;;;;;;;;4899637;29;21312;-62
2023/09/28 09:13:49;;;;;;;0.10;0.10;;;;;;;;;;4900345;29;20032;-62
2023/09/28 09:16:15;;;;;;;0.10;0.10;;;;;;;;;;4902815;29;20036;-62
2023/09/28 09:18:41;;;;;;;0.10;0.10;;;;;;;;;;4903405;29;20639;-63
2023/09/28 09:21:07;;;;;;;0.10;0.10;;;;;;;;;;4903687;29;20068;-62
2023/09/28 09:23:33;;;;;;;0.10;0.10;;;;;;;;;;4900495;29;20221;-64
2023/09/28 09:25:58;;;;;;;0.10;0.10;;;;;;;;;;4899780;29;20136;-62
2023/09/28 09:28:28;;;;;;;0.10;0.10;;;;;;;;;;4902380;29;20456;-61
2023/09/28 09:30:55;;;;;;;0.10;0.10;;;;;;;;;;4901514;29;20036;-65
2023/09/28 09:33:21;;;;;;;;;;;;;;;;;;4903755;29;20092;-62
2023/09/28 09:35:46;;;;;;;0.10;0.10;;;;;;;;;;4903151;29;20318;-62
2023/09/28 09:38:12;;;;;;;0.10;0.10;;;;;;;;;;4904694;29;20672;-62
2023/09/28 09:40:38;;;;;;;0.10;0.10;;;;;;;;;;4898655;29;20045;-62
2023/09/28 09:43:07;;;;;;;0.20;0.20;;;;;;;;;;4898216;29;20055;-62
2023/09/28 09:45:35;;;;;;;0.10;0.10;;;;;;;;;;4898305;29;20033;-63
2023/09/28 09:48:01;;;;;;;0.10;0.10;;;;;;;;;;4899964;29;20042;-62
2023/09/28 09:50:28;;;;;;;0.10;0.10;;;;;;;;;;4901606;29;20044;-62
2023/09/28 09:52:56;;;;;;;0.10;0.10;;;;;;;;;;4899901;29;20035;-61
2023/09/28 09:55:21;;;;;;;0.10;0.10;;;;;;;;;;4912537;29;20929;-64
2023/09/28 09:57:47;;;;;;;0.10;0.10;;;;;;;;;;4898238;29;20123;-63
2023/09/28 10:00:15;;;;;;;0.10;0.10;;;;;;;;;;4899594;29;20040;-61
2023/09/28 10:02:42;;;;;;;0.10;0.10;;;;;;;;;;4898819;29;20051;-61
2023/09/28 10:05:09;;;;;;;0.10;0.10;;;;;;;;;;4896773;29;20036;-64
2023/09/28 10:07:36;;;;;;;0.10;0.10;;;;;;;;;;4898804;29;20684;-63
2023/09/28 10:10:02;;;;;;;0.10;0.10;;;;;;;;;;4915245;29;20482;-64
2023/09/28 10:12:27;;;;;;;0.10;0.10;;;;;;;;;;4899375;29;20041;-62
2023/09/28 10:14:56;;;;;;;0.10;0.10;;;;;;;;;;4899041;29;20032;-61
2023/09/28 10:17:22;;;;;;;0.10;0.10;;;;;;;;;;4898127;29;20039;-64
2023/09/28 10:19:50;;;;;;;0.10;0.10;;;;;;;;;;4900590;29;20036;-62
2023/09/28 10:22:15;;;;;;;0.10;0.10;;;;;;;;;;4898938;29;20115;-62
2023/09/28 10:24:40;;;;;;;0.10;0.10;;;;;;;;;;4896654;29;20103;-64
2023/09/28 10:27:08;;;;;;;0.10;0.10;;;;;;;;;;4912430;29;20032;-64
2023/09/28 10:29:34;;;;;;;0.10;0.10;;;;;;;;;;4900449;29;20529;-61
2023/09/28 10:32:01;;;;;;;0.10;0.10;;;;;;;;;;4896968;29;20041;-62
2023/09/28 10:34:31;;;;;;;0.00;0.00;;;;;;;;;;4902606;29;20083;-62
2023/09/28 10:37:06;;;;;;;0.10;0.10;;;;;;;;;;4896702;29;20058;-61
2023/09/28 10:39:32;;;;;;;0.00;0.00;;;;;;;;;;4894579;29;20043;-62
2023/09/28 10:42:03;;;;;;;0.10;0.10;;;;;;;;;;4898689;29;20041;-63
2023/09/28 10:44:31;;;;;;;0.05;0.05;;;;;;;;;;4901747;29;20091;-61
2023/09/28 10:46:57;;;;;;;0.10;0.10;;;;;;;;;;4898984;29;20063;-63
2023/09/28 10:49:26;;;;;;;0.10;0.10;;;;;;;;;;4900258;29;20473;-63
2023/09/28 10:51:52;;;;;;;0.00;0.00;;;;;;;;;;4901755;29;20027;-63
2023/09/28 10:54:18;;;;;;;0.10;0.10;;;;;;;;;;4900163;29;20490;-63
2023/09/28 10:56:48;;;;;;;0.10;0.10;;;;;;;;;;4899961;29;20052;-61
2023/09/28 10:59:13;;;;;;;0.10;0.10;;;;;;;;;;4899279;29;20047;-63
2023/09/28 11:01:39;;;;;;;0.10;0.10;;;;;;;;;;4901950;29;20044;-62
2023/09/28 11:04:04;;;;;;;0.00;0.00;;;;;;;;;;4900294;29;20092;-63
2023/09/28 11:06:30;;;;;;;0.00;0.00;;;;;;;;;;4897166;29;20454;-62
2023/09/28 11:08:57;;;;;;;0.10;0.10;;;;;;;;;;4903071;29;20036;-62
2023/09/28 11:11:22;;;;;;;0.00;0.00;;;;;;;;;;4900917;29;20408;-64
2023/09/28 11:13:48;;;;;;;0.00;0.00;;;;;;;;;;4914129;29;20478;-62
2023/09/28 11:16:16;;;;;;;0.00;0.00;;;;;;;;;;4900150;29;20021;-62
2023/09/28 11:18:41;;;;;;;0.00;0.00;;;;;;;;;;4898113;29;20036;-64
2023/09/28 11:21:07;;;;;;;0.00;0.00;;;;;;;;;;4895941;29;20052;-63
2023/09/28 11:23:32;;;;;;;0.00;0.00;;;;;;;;;;4895839;29;20032;-64
2023/09/28 11:25:58;;;;;;;0.00;0.00;;;;;;;;;;4900619;29;20031;-63
2023/09/28 11:28:23;;;;;;;0.00;0.00;;;;;;;;;;4901335;29;20054;-62
2023/09/28 11:31:07;;;;;;;0.00;0.00;;;;;;;;;;4895040;29;20571;-66
2023/09/28 11:33:33;;;;;;;0.00;0.00;;;;;;;;;;4902487;29;20036;-64
2023/09/28 11:35:58;;;;;;;0.00;0.00;;;;;;;;;;4901354;29;20036;-64
2023/09/28 11:38:23;;;;;;;;;;;;;;;;;;4905382;29;20789;-63
2023/09/28 11:40:51;;;;;;;0.00;0.00;;;;;;;;;;4900159;29;20022;-63
2023/09/28 11:43:17;;;;;;;0.00;0.00;;;;;;;;;;4903937;29;20103;-63
2023/09/28 11:45:42;;;;;;;;;;;;;;;;;;4903849;29;20715;-64
2023/09/28 11:48:12;;;;;;;0.00;0.00;;;;;;;;;;4904192;29;19922;-64
2023/09/28 11:50:38;;;;;;;0.00;0.00;;;;;;;;;;4905700;29;20036;-64
2023/09/28 11:53:10;;;;;;;0.00;0.00;;;;;;;;;;4919384;29;20403;-63
2023/09/28 11:55:36;;;;;;;0.00;0.00;;;;;;;;;;4901705;29;20463;-63
2023/09/28 11:58:02;;;;;;;;;;;;;;;;;;4901593;29;20725;-64
2023/09/28 12:00:28;;;;;;;0.00;0.00;;;;;;;;;;4903204;29;19959;-63
2023/09/28 12:02:54;;;;;;;;;;;;;;;;;;4908721;29;20035;-64
2023/09/28 12:05:20;;;;;;;0.00;0.00;;;;;;;;;;4900536;29;21405;-64
2023/09/28 12:07:45;;;;;;;0.00;0.00;;;;;;;;;;4902210;29;20469;-64
2023/09/28 12:10:14;;;;;;;0.00;0.00;;;;;;;;;;4900403;29;20028;-65
2023/09/28 12:12:40;;;;;;;0.00;0.00;;;;;;;;;;4903516;29;20053;-64
2023/09/28 12:15:10;;;;;;;0.00;0.00;;;;;;;;;;4898964;29;20039;-63
2023/09/28 12:17:35;;;;;;;0.00;0.00;;;;;;;;;;4896024;29;20048;-64
2023/09/28 12:20:01;;;;;;;0.00;0.00;;;;;;;;;;4896478;29;20029;-64
2023/09/28 12:22:26;;;;;;;0.00;0.00;;;;;;;;;;4901290;29;20543;-62
2023/09/28 12:24:51;;;;;;;0.00;0.00;;;;;;;;;;4901334;29;20538;-62
2023/09/28 12:27:18;;;;;;;0.00;0.00;;;;;;;;;;4905316;29;20622;-62
2023/09/28 12:29:43;;;;;;;0.00;0.00;;;;;;;;;;4906491;29;20039;-62
2023/09/28 12:32:09;;;;;;;0.00;0.00;;;;;;;;;;4906049;29;20032;-63
2023/09/28 12:34:34;;;;;;;0.00;0.00;;;;;;;;;;4902256;29;20029;-62
2023/09/28 12:36:59;;;;;;;0.00;0.00;;;;;;;;;;4903575;29;20115;-62
2023/09/28 12:39:24;;;;;;;0.00;0.00;;;;;;;;;;4902993;29;20035;-61
2023/09/28 12:41:51;;;;;;;0.00;0.00;;;;;;;;;;4904567;29;20431;-62
2023/09/28 12:44:17;;;;;;;0.00;0.00;;;;;;;;;;4905665;29;20040;-62
2023/09/28 12:46:43;;;;;;;0.00;0.00;;;;;;;;;;4900763;29;20948;-63
2023/09/28 12:49:08;;;;;;;0.00;0.00;;;;;;;;;;4902221;29;20119;-62
2023/09/28 12:51:33;;;;;;;0.00;0.00;;;;;;;;;;4901356;29;20047;-66
2023/09/28 12:53:58;;;;;;;0.00;0.00;;;;;;;;;;4902981;29;20043;-63
2023/09/28 12:56:24;;;;;;;0.00;0.00;;;;;;;;;;4901859;29;20033;-62
2023/09/28 12:58:49;;;;;;;0.00;0.00;;;;;;;;;;4911551;29;20040;-64
2023/09/28 13:01:15;;;;;;;0.00;0.00;;;;;;;;;;4889583;29;20761;-67
2023/09/28 13:03:40;;;;;;;0.00;0.00;;;;;;;;;;4933263;28;20790;-63
2023/09/28 13:06:07;;;;;;;0.00;0.00;;;;;;;;;;4951390;28;20035;-62
2023/09/28 13:08:32;;;;;;;0.00;0.00;;;;;;;;;;4964342;28;20062;-65
2023/09/28 13:10:58;;;;;;;0.00;0.00;;;;;;;;;;4954102;28;20094;-63
2023/09/28 13:13:23;;;;;;;0.00;0.00;;;;;;;;;;4954580;28;20066;-63
2023/09/28 13:15:48;;;;;;;0.00;0.00;;;;;;;;;;4960619;28;20481;-62
2023/09/28 13:18:15;;;;;;;0.00;0.00;;;;;;;;;;4959246;28;20053;-63
2023/09/28 13:20:41;;;;;;;0.00;0.00;;;;;;;;;;4958163;28;20054;-64
2023/09/28 13:23:07;;;;;;;0.00;0.00;;;;;;;;;;4954075;28;20393;-64
2023/09/28 13:25:33;;;;;;;0.00;0.00;;;;;;;;;;4951372;28;20034;-63
2023/09/28 13:27:58;;;;;;;0.00;0.00;;;;;;;;;;4955524;28;20038;-64
2023/09/28 13:30:23;;;;;;;0.00;0.00;;;;;;;;;;4954616;28;20039;-64
2023/09/28 13:32:50;;;;;;;0.00;0.00;;;;;;;;;;4955880;28;20441;-63
2023/09/28 13:35:16;;;;;;;0.00;0.00;;;;;;;;;;4961574;28;20508;-64
2023/09/28 13:37:41;;;;;;;0.00;0.00;;;;;;;;;;4961403;28;20122;-64
2023/09/28 13:40:15;;;;;;;0.00;0.00;;;;;;;;;;4963438;28;20030;-63
2023/09/28 13:42:41;;;;;;;0.00;0.00;;;;;;;;;;4966315;28;20046;-63
2023/09/28 13:45:06;;;;;;;0.00;0.00;;;;;;;;;;4962887;28;20398;-64
2023/09/28 13:47:32;;;;;;;0.00;0.00;;;;;;;;;;4966619;28;20495;-64
2023/09/28 13:49:57;;;;;;;0.00;0.00;;;;;;;;;;4959781;28;20022;-63
2023/09/28 13:52:23;;;;;;;0.00;0.00;;;;;;;;;;4953087;28;20049;-63
2023/09/28 13:54:50;;;;;;;0.00;0.00;;;;;;;;;;4949648;28;20694;-63
2023/09/28 13:57:16;;;;;;;0.00;0.00;;;;;;;;;;4952326;28;20469;-64
2023/09/28 13:59:41;;;;;;;0.00;0.00;;;;;;;;;;4960024;28;20035;-63
2023/09/28 14:02:12;;;;;;;0.00;0.00;;;;;;;;;;4954464;28;20046;-63
2023/09/28 14:04:37;;;;;;;0.00;0.00;;;;;;;;;;4961421;28;20030;-63
2023/09/28 14:07:02;;;;;;;0.00;0.00;;;;;;;;;;4957240;28;20107;-63
2023/09/28 14:09:31;;;;;;;0.00;0.00;;;;;;;;;;4957330;28;20030;-63
2023/09/28 14:11:56;;;;;;;0.00;0.00;;;;;;;;;;4959394;28;20063;-64
2023/09/28 14:14:24;;;;;;;0.00;0.00;;;;;;;;;;4955869;28;20061;-66
2023/09/28 14:16:50;;;;;;;0.00;0.00;;;;;;;;;;4960094;28;20071;-62
2023/09/28 14:19:15;;;;;;;0.00;0.00;;;;;;;;;;4955435;28;20070;-62
2023/09/28 14:21:40;;;;;;;0.00;0.00;;;;;;;;;;4959209;28;20515;-63
2023/09/28 14:24:06;;;;;;;0.00;0.00;;;;;;;;;;4962657;28;20034;-64
2023/09/28 14:26:35;;;;;;;0.00;0.00;;;;;;;;;;4949880;28;20035;-63
2023/09/28 14:29:01;;;;;;;0.00;0.00;;;;;;;;;;4965783;28;20680;-63
2023/09/28 14:31:27;;;;;;;0.00;0.00;;;;;;;;;;4965894;28;20077;-64
2023/09/28 14:33:52;;;;;;;0.00;0.00;;;;;;;;;;4967644;28;20030;-64
2023/09/28 14:36:19;;;;;;;0.00;0.00;;;;;;;;;;4964377;28;20138;-62
2023/09/28 14:38:45;;;;;;;0.00;0.00;;;;;;;;;;4966110;28;20086;-62